B Gas Crusader — 9HTH8 — position and weather

sailwx.info

Track history (hours):
 
Tides and Currents Weather Stations Pressure Air Temp Water Temp Dewpoint Dewpoint Depression Visibility Wind Speed Wind Dir Waves Ship Positions

B Gas Crusader

Last reported at 2018-Jan-10 14:14 UTC. Time now 2018-Jan-20 21:07 UTC.
Position N 37°19' E 015°24'.
Warning: this ship's position is 10 days out of date.

Length 74 m; draft 4.4 m.

Type: Ship (hazmat cat C). MMSI: 256400000.

Date/timePositionNaut miles runAvg speedWind from/ knotsBaromVisibWave heightAir tempDewpointWater temp
2018-Jan-10 14:14N 37°19' E 015°24'2 7.4
2018-Jan-10 13:57N 37°20' E 015°27'12 9.1
2018-Jan-10 12:38N 37°29' E 015°37'1 9.4
2018-Jan-10 12:30N 37°30' E 015°38'6 9.5
2018-Jan-10 11:55N 37°34' E 015°43'4 9.7
2018-Jan-10 11:30N 37°36' E 015°47'6 9.5
2018-Jan-10 10:54N 37°41' E 015°52'4 9.3
2018-Jan-10 10:26N 37°44' E 015°56'4 9.1
2018-Jan-10 10:00N 37°47' E 015°59'  
2018-Jan-07 17:30N 37°50' E 016°03'610.9
2018-Jan-07 16:55N 37°45' E 015°57'510.8
2018-Jan-07 16:30N 37°42' E 015°54'510.9
2018-Jan-07 16:00N 37°38' E 015°49'610.5
2018-Jan-07 15:26N 37°34' E 015°43'510.8
2018-Jan-07 14:58N 37°30' E 015°39'  
2018-Jan-04 19:40N 36°43' E 014°30'311.2
2018-Jan-04 19:24N 36°44' E 014°27'410.8
2018-Jan-04 19:00N 36°46' E 014°22'510.6
2018-Jan-04 18:30N 36°48' E 014°16'510.7
2018-Jan-04 18:00N 36°51' E 014°10'510.8
2018-Jan-04 17:30N 36°53' E 014°04'510.5
2018-Jan-04 17:00N 36°56' E 013°58'610.2
2018-Jan-04 16:26N 36°58' E 013°52'26410.2
2018-Jan-03 14:39N 38°42' E 008°44'210.2
2018-Jan-03 14:26N 38°43' E 008°42'31710.3
2018-Jan-02 07:37N 43°13' E 005°01'310.8
2018-Jan-02 07:21N 43°16' E 004°60'410.6
2018-Jan-02 07:00N 43°19' E 004°59'510.0
2018-Jan-02 06:30N 43°23' E 004°55'4 7.9
2018-Jan-02 06:00N 43°25' E 004°50'0 0.0
2018-Jan-02 05:28N 43°25' E 004°50'0 0.0
2018-Jan-02 04:28N 43°25' E 004°50'0 0.0
2018-Jan-02 03:58N 43°25' E 004°50'0 0.0
2018-Jan-02 03:22N 43°25' E 004°50'0 0.0
2018-Jan-02 02:58N 43°25' E 004°50'0 0.0
2018-Jan-02 02:28N 43°25' E 004°50'0 0.0
2018-Jan-02 01:58N 43°25' E 004°50'0 0.0
2018-Jan-02 01:28N 43°25' E 004°50'0 0.0
2018-Jan-02 00:58N 43°25' E 004°50'0 0.0
2018-Jan-02 00:28N 43°25' E 004°50'0 0.0
2018-Jan-01 23:58N 43°25' E 004°50'0 0.0
2018-Jan-01 23:28N 43°25' E 004°50'0 0.0
2018-Jan-01 22:58N 43°25' E 004°50'0 0.0
2018-Jan-01 22:28N 43°25' E 004°50'0 0.0
2018-Jan-01 21:58N 43°25' E 004°50'0 0.0
2018-Jan-01 21:28N 43°25' E 004°50'0 0.0
2018-Jan-01 20:58N 43°25' E 004°50'0 0.0
2018-Jan-01 20:28N 43°25' E 004°50'0 0.0
2018-Jan-01 19:58N 43°25' E 004°50'0 0.0
2018-Jan-01 19:28N 43°25' E 004°50'0 0.0
2018-Jan-01 18:58N 43°25' E 004°50'0 0.0
2018-Jan-01 18:28N 43°25' E 004°50'0 0.0
2018-Jan-01 17:58N 43°25' E 004°50'0 0.0
2018-Jan-01 17:28N 43°25' E 004°50'0 0.0
2018-Jan-01 14:58N 43°25' E 004°50'0 0.0
2018-Jan-01 14:28N 43°25' E 004°50'0 0.0
2018-Jan-01 13:58N 43°25' E 004°50'3 7.4
2018-Jan-01 13:30N 43°24' E 004°55'5 9.6
2018-Jan-01 13:01N 43°20' E 004°59'  
Track history (hours):
 
Tides and Currents Weather Stations Pressure Air Temp Water Temp Dewpoint Dewpoint Depression Visibility Wind Speed Wind Dir Waves Ship Positions

B Gas Crusader

Last reported at 2018-Jan-10 14:14 UTC. Time now 2018-Jan-20 21:07 UTC.
Position N 37°19' E 015°24'.
Warning: this ship's position is 10 days out of date.

Length 74 m; draft 4.4 m.

Type: Ship (hazmat cat C). MMSI: 256400000.

Date/timePositionNaut miles runAvg speedWind from/ knotsBaromVisibWave heightAir tempDewpointWater temp
2018-Jan-10 14:14N 37°19' E 015°24'2 7.4
2018-Jan-10 13:57N 37°20' E 015°27'12 9.1
2018-Jan-10 12:38N 37°29' E 015°37'1 9.4
2018-Jan-10 12:30N 37°30' E 015°38'6 9.5
2018-Jan-10 11:55N 37°34' E 015°43'4 9.7
2018-Jan-10 11:30N 37°36' E 015°47'6 9.5
2018-Jan-10 10:54N 37°41' E 015°52'4 9.3
2018-Jan-10 10:26N 37°44' E 015°56'4 9.1
2018-Jan-10 10:00N 37°47' E 015°59'  
2018-Jan-07 17:30N 37°50' E 016°03'610.9
2018-Jan-07 16:55N 37°45' E 015°57'510.8
2018-Jan-07 16:30N 37°42' E 015°54'510.9
2018-Jan-07 16:00N 37°38' E 015°49'610.5
2018-Jan-07 15:26N 37°34' E 015°43'510.8
2018-Jan-07 14:58N 37°30' E 015°39'  
2018-Jan-04 19:40N 36°43' E 014°30'311.2
2018-Jan-04 19:24N 36°44' E 014°27'410.8
2018-Jan-04 19:00N 36°46' E 014°22'510.6
2018-Jan-04 18:30N 36°48' E 014°16'510.7
2018-Jan-04 18:00N 36°51' E 014°10'510.8
2018-Jan-04 17:30N 36°53' E 014°04'510.5
2018-Jan-04 17:00N 36°56' E 013°58'610.2
2018-Jan-04 16:26N 36°58' E 013°52'26410.2
2018-Jan-03 14:39N 38°42' E 008°44'210.2
2018-Jan-03 14:26N 38°43' E 008°42'31710.3
2018-Jan-02 07:37N 43°13' E 005°01'310.8
2018-Jan-02 07:21N 43°16' E 004°60'410.6
2018-Jan-02 07:00N 43°19' E 004°59'510.0
2018-Jan-02 06:30N 43°23' E 004°55'4 7.9
2018-Jan-02 06:00N 43°25' E 004°50'0 0.0
2018-Jan-02 05:28N 43°25' E 004°50'0 0.0
2018-Jan-02 04:28N 43°25' E 004°50'0 0.0
2018-Jan-02 03:58N 43°25' E 004°50'0 0.0
2018-Jan-02 03:22N 43°25' E 004°50'0 0.0
2018-Jan-02 02:58N 43°25' E 004°50'0 0.0
2018-Jan-02 02:28N 43°25' E 004°50'0 0.0
2018-Jan-02 01:58N 43°25' E 004°50'0 0.0
2018-Jan-02 01:28N 43°25' E 004°50'0 0.0
2018-Jan-02 00:58N 43°25' E 004°50'0 0.0
2018-Jan-02 00:28N 43°25' E 004°50'0 0.0
2018-Jan-01 23:58N 43°25' E 004°50'0 0.0
2018-Jan-01 23:28N 43°25' E 004°50'0 0.0
2018-Jan-01 22:58N 43°25' E 004°50'0 0.0
2018-Jan-01 22:28N 43°25' E 004°50'0 0.0
2018-Jan-01 21:58N 43°25' E 004°50'0 0.0
2018-Jan-01 21:28N 43°25' E 004°50'0 0.0
2018-Jan-01 20:58N 43°25' E 004°50'0 0.0
2018-Jan-01 20:28N 43°25' E 004°50'0 0.0
2018-Jan-01 19:58N 43°25' E 004°50'0 0.0
2018-Jan-01 19:28N 43°25' E 004°50'0 0.0
2018-Jan-01 18:58N 43°25' E 004°50'0 0.0
2018-Jan-01 18:28N 43°25' E 004°50'0 0.0
2018-Jan-01 17:58N 43°25' E 004°50'0 0.0
2018-Jan-01 17:28N 43°25' E 004°50'0 0.0
2018-Jan-01 14:58N 43°25' E 004°50'0 0.0
2018-Jan-01 14:28N 43°25' E 004°50'0 0.0
2018-Jan-01 13:58N 43°25' E 004°50'3 7.4
2018-Jan-01 13:30N 43°24' E 004°55'5 9.6
2018-Jan-01 13:01N 43°20' E 004°59'  

Dump ship's entire track history